sensor_id;sensor_type;location;lat;lon;timestamp;P1;durP1;ratioP1;P2;durP2;ratioP2
75516;SDS011;64097;52.548;13.406;2023-03-01T06:05:24;22.75;;;16.58;;
75516;SDS011;64097;52.548;13.406;2023-03-01T06:07:50;22.17;;;15.75;;
75516;SDS011;64097;52.548;13.406;2023-03-01T06:10:18;26.08;;;18.52;;
75516;SDS011;64097;52.548;13.406;2023-03-01T06:12:45;24.63;;;17.48;;
75516;SDS011;64097;52.548;13.406;2023-03-01T06:15:12;25.52;;;17.88;;
75516;SDS011;64097;52.548;13.406;2023-03-01T06:17:39;21.73;;;15.98;;
75516;SDS011;64097;52.548;13.406;2023-03-01T06:20:07;24.40;;;16.75;;
75516;SDS011;64097;52.548;13.406;2023-03-01T06:22:38;22.00;;;16.50;;
75516;SDS011;64097;52.548;13.406;2023-03-01T06:25:05;23.38;;;15.43;;
75516;SDS011;64097;52.548;13.406;2023-03-01T06:27:31;22.65;;;16.45;;
75516;SDS011;64097;52.548;13.406;2023-03-01T06:29:57;30.17;;;18.85;;
75516;SDS011;64097;52.548;13.406;2023-03-01T06:32:22;21.85;;;15.80;;
75516;SDS011;64097;52.548;13.406;2023-03-01T06:34:49;24.40;;;17.77;;
75516;SDS011;64097;52.548;13.406;2023-03-01T06:37:15;20.45;;;15.32;;
75516;SDS011;64097;52.548;13.406;2023-03-01T06:39:41;22.17;;;16.00;;
75516;SDS011;64097;52.548;13.406;2023-03-01T06:42:07;24.77;;;17.40;;
75516;SDS011;64097;52.548;13.406;2023-03-01T06:44:35;21.48;;;14.88;;
75516;SDS011;64097;52.548;13.406;2023-03-01T06:47:02;23.75;;;16.10;;
75516;SDS011;64097;52.548;13.406;2023-03-01T06:49:28;23.88;;;14.88;;
75516;SDS011;64097;52.548;13.406;2023-03-01T06:51:54;25.73;;;16.25;;
75516;SDS011;64097;52.548;13.406;2023-03-01T06:54:19;25.30;;;16.60;;
75516;SDS011;64097;52.548;13.406;2023-03-01T06:56:47;24.42;;;16.05;;
75516;SDS011;64097;52.548;13.406;2023-03-01T06:59:14;20.38;;;14.90;;
75516;SDS011;64097;52.548;13.406;2023-03-01T07:01:41;24.50;;;16.35;;
75516;SDS011;64097;52.548;13.406;2023-03-01T07:04:07;20.70;;;15.52;;
75516;SDS011;64097;52.548;13.406;2023-03-01T07:06:33;22.23;;;15.80;;
75516;SDS011;64097;52.548;13.406;2023-03-01T07:08:58;21.70;;;16.48;;
75516;SDS011;64097;52.548;13.406;2023-03-01T07:11:24;22.35;;;15.90;;
75516;SDS011;64097;52.548;13.406;2023-03-01T07:13:50;24.92;;;17.10;;
75516;SDS011;64097;52.548;13.406;2023-03-01T07:16:16;22.95;;;16.02;;
75516;SDS011;64097;52.548;13.406;2023-03-01T07:18:42;22.20;;;15.52;;
75516;SDS011;64097;52.548;13.406;2023-03-01T07:21:09;25.23;;;17.10;;
75516;SDS011;64097;52.548;13.406;2023-03-01T07:23:37;24.48;;;16.38;;
75516;SDS011;64097;52.548;13.406;2023-03-01T07:26:03;23.50;;;16.67;;
75516;SDS011;64097;52.548;13.406;2023-03-01T07:28:29;27.50;;;18.63;;
75516;SDS011;64097;52.548;13.406;2023-03-01T07:31:00;25.00;;;18.15;;
75516;SDS011;64097;52.548;13.406;2023-03-01T07:33:26;23.90;;;17.27;;
75516;SDS011;64097;52.548;13.406;2023-03-01T07:35:56;23.60;;;16.70;;
75516;SDS011;64097;52.548;13.406;2023-03-01T07:38:26;23.65;;;15.82;;
75516;SDS011;64097;52.548;13.406;2023-03-01T07:40:52;19.75;;;14.27;;
75516;SDS011;64097;52.548;13.406;2023-03-01T07:43:18;20.60;;;14.85;;
75516;SDS011;64097;52.548;13.406;2023-03-01T07:45:44;20.88;;;14.65;;
75516;SDS011;64097;52.548;13.406;2023-03-01T07:48:09;18.17;;;13.15;;
75516;SDS011;64097;52.548;13.406;2023-03-01T07:50:35;16.65;;;11.43;;
75516;SDS011;64097;52.548;13.406;2023-03-01T07:53:01;15.50;;;11.80;;
75516;SDS011;64097;52.548;13.406;2023-03-01T07:55:27;17.90;;;12.05;;
75516;SDS011;64097;52.548;13.406;2023-03-01T07:57:53;20.33;;;13.68;;
75516;SDS011;64097;52.548;13.406;2023-03-01T08:00:19;17.33;;;12.77;;
75516;SDS011;64097;52.548;13.406;2023-03-01T08:02:44;18.45;;;11.85;;
75516;SDS011;64097;52.548;13.406;2023-03-01T08:05:10;16.13;;;11.73;;
75516;SDS011;64097;52.548;13.406;2023-03-01T08:07:36;16.65;;;12.18;;
75516;SDS011;64097;52.548;13.406;2023-03-01T08:10:02;15.40;;;11.60;;
75516;SDS011;64097;52.548;13.406;2023-03-01T08:12:28;15.93;;;11.23;;
75516;SDS011;64097;52.548;13.406;2023-03-01T08:14:54;16.15;;;11.10;;
75516;SDS011;64097;52.548;13.406;2023-03-01T08:17:20;14.10;;;10.85;;
75516;SDS011;64097;52.548;13.406;2023-03-01T08:19:46;13.43;;;9.50;;
75516;SDS011;64097;52.548;13.406;2023-03-01T08:22:11;12.25;;;9.60;;
75516;SDS011;64097;52.548;13.406;2023-03-01T08:24:37;12.35;;;8.52;;
75516;SDS011;64097;52.548;13.406;2023-03-01T08:27:03;14.27;;;9.43;;
75516;SDS011;64097;52.548;13.406;2023-03-01T08:29:31;12.93;;;9.75;;
75516;SDS011;64097;52.548;13.406;2023-03-01T08:31:58;15.15;;;9.52;;
75516;SDS011;64097;52.548;13.406;2023-03-01T08:34:24;12.35;;;9.40;;
75516;SDS011;64097;52.548;13.406;2023-03-01T08:36:50;12.65;;;9.48;;
75516;SDS011;64097;52.548;13.406;2023-03-01T08:39:17;13.98;;;10.10;;
75516;SDS011;64097;52.548;13.406;2023-03-01T08:41:45;10.80;;;8.75;;
75516;SDS011;64097;52.548;13.406;2023-03-01T08:44:12;13.55;;;9.98;;
75516;SDS011;64097;52.548;13.406;2023-03-01T08:46:42;9.38;;;7.47;;
75516;SDS011;64097;52.548;13.406;2023-03-01T08:49:14;11.30;;;8.10;;
75516;SDS011;64097;52.548;13.406;2023-03-01T08:51:44;8.88;;;6.70;;
75516;SDS011;64097;52.548;13.406;2023-03-01T08:54:12;11.98;;;7.60;;
75516;SDS011;64097;52.548;13.406;2023-03-01T08:56:40;9.38;;;6.85;;
75516;SDS011;64097;52.548;13.406;2023-03-01T08:59:07;10.90;;;7.28;;
75516;SDS011;64097;52.548;13.406;2023-03-01T09:01:34;8.30;;;6.68;;
75516;SDS011;64097;52.548;13.406;2023-03-01T09:04:01;8.52;;;6.82;;
75516;SDS011;64097;52.548;13.406;2023-03-01T09:06:27;8.50;;;6.53;;
75516;SDS011;64097;52.548;13.406;2023-03-01T09:08:56;8.82;;;6.43;;
75516;SDS011;64097;52.548;13.406;2023-03-01T09:11:22;8.60;;;6.60;;
75516;SDS011;64097;52.548;13.406;2023-03-01T09:13:48;8.18;;;6.20;;
75516;SDS011;64097;52.548;13.406;2023-03-01T09:16:15;8.07;;;5.80;;
75516;SDS011;64097;52.548;13.406;2023-03-01T09:18:42;8.77;;;6.03;;
75516;SDS011;64097;52.548;13.406;2023-03-01T09:21:10;8.48;;;6.10;;
75516;SDS011;64097;52.548;13.406;2023-03-01T09:23:38;10.88;;;7.57;;
75516;SDS011;64097;52.548;13.406;2023-03-01T09:26:06;10.68;;;7.50;;
75516;SDS011;64097;52.548;13.406;2023-03-01T09:28:34;9.68;;;6.88;;
75516;SDS011;64097;52.548;13.406;2023-03-01T09:31:01;12.05;;;7.95;;
75516;SDS011;64097;52.548;13.406;2023-03-01T09:33:31;8.70;;;6.75;;
75516;SDS011;64097;52.548;13.406;2023-03-01T09:36:02;7.97;;;6.20;;
75516;SDS011;64097;52.548;13.406;2023-03-01T09:38:29;8.43;;;6.13;;
75516;SDS011;64097;52.548;13.406;2023-03-01T09:40:55;8.05;;;6.20;;
75516;SDS011;64097;52.548;13.406;2023-03-01T09:46:06;8.65;;;5.97;;
75516;SDS011;64097;52.548;13.406;2023-03-01T09:48:41;6.88;;;5.20;;
75516;SDS011;64097;52.548;13.406;2023-03-01T09:51:14;7.25;;;4.68;;
75516;SDS011;64097;52.548;13.406;2023-03-01T09:53:50;6.82;;;4.82;;
75516;SDS011;64097;52.548;13.406;2023-03-01T09:56:28;7.70;;;5.85;;
75516;SDS011;64097;52.548;13.406;2023-03-01T10:09:39;6.43;;;3.90;;
75516;SDS011;64097;52.548;13.406;2023-03-01T10:12:12;4.90;;;3.30;;
75516;SDS011;64097;52.548;13.406;2023-03-01T10:14:57;4.60;;;3.13;;
75516;SDS011;64097;52.548;13.406;2023-03-01T10:17:28;5.45;;;3.25;;
75516;SDS011;64097;52.548;13.406;2023-03-01T10:19:56;4.28;;;3.30;;
75516;SDS011;64097;52.548;13.406;2023-03-01T10:22:39;3.47;;;2.70;;
75516;SDS011;64097;52.548;13.406;2023-03-01T10:25:05;4.07;;;2.90;;
75516;SDS011;64097;52.548;13.406;2023-03-01T10:27:51;4.88;;;3.33;;
75516;SDS011;64097;52.548;13.406;2023-03-01T10:30:35;6.15;;;3.78;;
75516;SDS011;64097;52.548;13.406;2023-03-01T10:33:26;4.53;;;3.30;;
75516;SDS011;64097;52.548;13.406;2023-03-01T10:35:56;6.15;;;3.15;;
75516;SDS011;64097;52.548;13.406;2023-03-01T10:38:22;4.45;;;2.85;;
75516;SDS011;64097;52.548;13.406;2023-03-01T10:40:57;3.35;;;2.70;;
75516;SDS011;64097;52.548;13.406;2023-03-01T10:43:45;3.92;;;2.80;;
75516;SDS011;64097;52.548;13.406;2023-03-01T10:51:41;4.03;;;3.25;;
75516;SDS011;64097;52.548;13.406;2023-03-01T10:54:22;3.60;;;2.70;;
75516;SDS011;64097;52.548;13.406;2023-03-01T10:56:58;3.42;;;2.20;;
75516;SDS011;64097;52.548;13.406;2023-03-01T10:59:30;5.55;;;2.50;;
75516;SDS011;64097;52.548;13.406;2023-03-01T11:07:22;3.28;;;2.40;;
75516;SDS011;64097;52.548;13.406;2023-03-01T11:09:48;4.07;;;2.85;;
75516;SDS011;64097;52.548;13.406;2023-03-01T11:12:14;3.88;;;2.55;;
75516;SDS011;64097;52.548;13.406;2023-03-01T11:14:48;3.10;;;2.42;;
75516;SDS011;64097;52.548;13.406;2023-03-01T11:17:31;2.97;;;2.30;;
75516;SDS011;64097;52.548;13.406;2023-03-01T11:22:31;3.20;;;2.55;;
75516;SDS011;64097;52.548;13.406;2023-03-01T11:24:59;3.55;;;2.47;;
75516;SDS011;64097;52.548;13.406;2023-03-01T11:27:27;3.05;;;2.42;;
75516;SDS011;64097;52.548;13.406;2023-03-01T11:30:02;3.47;;;2.70;;
75516;SDS011;64097;52.548;13.406;2023-03-01T11:32:34;3.38;;;2.30;;
75516;SDS011;64097;52.548;13.406;2023-03-01T11:35:15;2.13;;;1.88;;
75516;SDS011;64097;52.548;13.406;2023-03-01T11:40:37;5.35;;;3.35;;
75516;SDS011;64097;52.548;13.406;2023-03-01T11:45:59;3.95;;;3.05;;
75516;SDS011;64097;52.548;13.406;2023-03-01T11:48:57;4.03;;;3.10;;
75516;SDS011;64097;52.548;13.406;2023-03-01T11:54:22;4.95;;;2.72;;
75516;SDS011;64097;52.548;13.406;2023-03-01T11:56:53;3.63;;;2.80;;
75516;SDS011;64097;52.548;13.406;2023-03-01T11:59:56;5.47;;;3.10;;
75516;SDS011;64097;52.548;13.406;2023-03-01T12:02:46;2.85;;;2.22;;
75516;SDS011;64097;52.548;13.406;2023-03-01T12:10:54;3.35;;;2.25;;
75516;SDS011;64097;52.548;13.406;2023-03-01T12:41:18;3.45;;;2.50;;
75516;SDS011;64097;52.548;13.406;2023-03-01T12:44:02;2.20;;;2.00;;
75516;SDS011;64097;52.548;13.406;2023-03-01T12:49:41;3.10;;;2.40;;
75516;SDS011;64097;52.548;13.406;2023-03-01T12:54:53;3.58;;;2.22;;
75516;SDS011;64097;52.548;13.406;2023-03-01T13:00:30;3.10;;;2.80;;
75516;SDS011;64097;52.548;13.406;2023-03-01T13:08:14;3.72;;;2.70;;
75516;SDS011;64097;52.548;13.406;2023-03-01T13:11:17;4.60;;;2.88;;
75516;SDS011;64097;52.548;13.406;2023-03-01T13:13:45;3.70;;;2.65;;
75516;SDS011;64097;52.548;13.406;2023-03-01T13:19:15;3.08;;;2.33;;
75516;SDS011;64097;52.548;13.406;2023-03-01T13:21:43;2.83;;;2.28;;
75516;SDS011;64097;52.548;13.406;2023-03-01T13:27:21;2.90;;;1.73;;
75516;SDS011;64097;52.548;13.406;2023-03-01T13:29:53;2.58;;;1.80;;
75516;SDS011;64097;52.548;13.406;2023-03-01T13:34:59;2.15;;;1.60;;
75516;SDS011;64097;52.548;13.406;2023-03-01T13:37:31;2.28;;;1.88;;
75516;SDS011;64097;52.548;13.406;2023-03-01T13:39:59;2.37;;;1.87;;
75516;SDS011;64097;52.548;13.406;2023-03-01T13:42:35;2.22;;;1.92;;
75516;SDS011;64097;52.548;13.406;2023-03-01T13:45:21;3.30;;;1.80;;
75516;SDS011;64097;52.548;13.406;2023-03-01T13:47:58;2.22;;;1.80;;
75516;SDS011;64097;52.548;13.406;2023-03-01T13:50:35;3.65;;;2.50;;
75516;SDS011;64097;52.548;13.406;2023-03-01T13:53:09;3.55;;;2.20;;
75516;SDS011;64097;52.548;13.406;2023-03-01T13:55:42;2.90;;;2.00;;
75516;SDS011;64097;52.548;13.406;2023-03-01T13:58:32;3.63;;;2.47;;
